createdAt,value
2022-09-11T00:00:29.793Z,13.09
2022-09-11T00:02:56.254Z,13.15
2022-09-11T00:05:22.890Z,13.08
2022-09-11T00:07:49.331Z,12.92
2022-09-11T00:10:16.486Z,12.88
2022-09-11T00:12:43.337Z,13.06
2022-09-11T00:15:12.481Z,12.95
2022-09-11T00:17:39.669Z,13.07
2022-09-11T00:20:06.219Z,12.99
2022-09-11T00:22:32.673Z,13.21
2022-09-11T00:24:59.339Z,13.13
2022-09-11T00:27:25.791Z,13.26
2022-09-11T00:29:52.250Z,13.33
2022-09-11T00:32:18.719Z,13.04
2022-09-11T00:34:46.851Z,12.92
2022-09-11T00:37:13.454Z,13.06
2022-09-11T00:39:39.939Z,13.00
2022-09-11T00:42:06.461Z,12.70
2022-09-11T00:44:33.802Z,12.71
2022-09-11T00:47:03.050Z,12.72
2022-09-11T00:49:34.846Z,12.83
2022-09-11T00:52:12.159Z,13.02
2022-09-11T00:54:44.493Z,13.10
2022-09-11T00:57:11.129Z,12.74
2022-09-11T00:59:39.768Z,12.84
2022-09-11T01:02:08.598Z,12.85
2022-09-11T01:04:35.157Z,12.88
2022-09-11T01:07:02.566Z,12.79
2022-09-11T01:09:30.447Z,12.79
2022-09-11T01:12:00.122Z,12.66
2022-09-11T01:14:34.582Z,12.69
2022-09-11T01:17:10.564Z,12.63
2022-09-11T01:19:55.367Z,12.65
2022-09-11T01:22:40.453Z,12.93
2022-09-11T01:25:07.013Z,12.70
2022-09-11T01:27:50.725Z,12.60
2022-09-11T01:30:24.578Z,12.68
2022-09-11T01:33:11.240Z,12.63
2022-09-11T01:35:57.325Z,12.44
2022-09-11T01:38:28.496Z,12.51
2022-09-11T01:41:09.566Z,12.61
2022-09-11T01:43:38.228Z,12.41
2022-09-11T01:46:07.221Z,12.23
2022-09-11T01:48:44.854Z,12.45
2022-09-11T01:51:15.595Z,12.33
2022-09-11T01:53:48.109Z,12.33
2022-09-11T01:56:20.222Z,12.34
2022-09-11T01:58:47.989Z,12.38
2022-09-11T02:01:27.373Z,12.50
2022-09-11T02:04:10.574Z,12.62
2022-09-11T02:06:42.459Z,12.27
2022-09-11T02:09:11.098Z,12.25
2022-09-11T02:11:43.435Z,12.32
2022-09-11T02:14:10.590Z,12.48
2022-09-11T02:16:56.201Z,12.38
2022-09-11T02:19:28.079Z,12.48
2022-09-11T02:21:54.697Z,12.51
2022-09-11T02:24:22.747Z,12.75
2022-09-11T02:26:54.966Z,12.70
2022-09-11T02:29:21.474Z,12.69
2022-09-11T02:31:48.858Z,12.55
2022-09-11T02:34:15.539Z,12.29
2022-09-11T02:37:03.914Z,12.19
2022-09-11T02:39:41.349Z,12.59
2022-09-11T02:42:20.790Z,12.73
2022-09-11T02:45:02.177Z,12.61
2022-09-11T02:47:48.205Z,12.63
2022-09-11T02:50:36.537Z,12.50
2022-09-11T02:53:02.999Z,12.48
2022-09-11T02:55:32.516Z,12.62
2022-09-11T02:58:02.600Z,12.67
2022-09-11T03:00:30.992Z,12.69
2022-09-11T03:02:57.697Z,12.64
2022-09-11T03:05:24.297Z,12.75
2022-09-11T03:07:50.989Z,12.65
2022-09-11T03:10:17.665Z,12.72
2022-09-11T03:12:44.146Z,12.66
2022-09-11T03:15:11.106Z,12.67
2022-09-11T03:17:37.689Z,12.64
2022-09-11T03:20:04.722Z,12.26
2022-09-11T03:22:31.203Z,12.19
2022-09-11T03:24:58.470Z,12.25
2022-09-11T03:27:28.117Z,12.29
2022-09-11T03:29:56.205Z,12.50
2022-09-11T03:32:23.266Z,12.59
2022-09-11T03:34:49.684Z,12.55
2022-09-11T03:37:16.239Z,12.65
2022-09-11T03:39:43.464Z,12.80
2022-09-11T03:42:12.618Z,12.75
2022-09-11T03:44:39.553Z,12.50
2022-09-11T03:47:06.092Z,12.47
2022-09-11T03:49:32.666Z,12.51
2022-09-11T03:51:59.889Z,12.59
2022-09-11T03:54:28.042Z,12.60
2022-09-11T03:56:55.433Z,12.76
2022-09-11T03:59:21.867Z,12.80
2022-09-11T04:01:50.732Z,12.68
2022-09-11T04:04:17.678Z,12.67
2022-09-11T04:06:45.378Z,12.75
2022-09-11T04:09:12.413Z,12.61
2022-09-11T04:11:40.053Z,12.67
2022-09-11T04:14:13.426Z,12.70
2022-09-11T04:16:41.565Z,12.90
2022-09-11T04:19:09.518Z,13.03
2022-09-11T04:21:36.075Z,13.05
2022-09-11T04:24:02.720Z,13.11
2022-09-11T04:26:30.903Z,13.08
2022-09-11T04:29:07.544Z,13.34
2022-09-11T04:31:35.989Z,13.29
2022-09-11T04:34:02.788Z,13.43
2022-09-11T04:36:32.493Z,13.44
2022-09-11T04:39:00.441Z,13.34
2022-09-11T04:41:27.840Z,13.48
2022-09-11T04:43:58.260Z,13.65
2022-09-11T04:46:27.795Z,13.43
2022-09-11T04:49:02.224Z,13.22
2022-09-11T04:51:34.765Z,13.31
2022-09-11T04:54:01.934Z,13.32
2022-09-11T04:56:40.034Z,13.24
2022-09-11T04:59:15.961Z,13.10
2022-09-11T05:01:48.115Z,12.98
2022-09-11T05:04:16.981Z,13.16
2022-09-11T05:06:48.203Z,13.02
2022-09-11T05:09:17.291Z,13.05
2022-09-11T05:11:45.944Z,13.06
2022-09-11T05:14:12.731Z,13.19
2022-09-11T05:16:41.376Z,13.10
2022-09-11T05:19:09.825Z,12.99
2022-09-11T05:21:38.014Z,13.06
2022-09-11T05:24:04.582Z,13.10
2022-09-11T05:26:34.875Z,12.95
2022-09-11T05:29:09.756Z,13.03
2022-09-11T05:31:42.433Z,13.28
2022-09-11T05:34:09.564Z,13.16
2022-09-11T05:36:37.000Z,13.55
2022-09-11T05:39:04.321Z,13.18
2022-09-11T05:41:32.629Z,13.24
2022-09-11T05:43:59.344Z,13.22
2022-09-11T05:46:26.034Z,13.05
2022-09-11T05:48:56.991Z,13.14
2022-09-11T05:51:23.693Z,13.13
2022-09-11T05:53:54.635Z,13.09
2022-09-11T05:56:22.962Z,13.41
2022-09-11T05:58:52.216Z,13.67
2022-09-11T06:01:22.059Z,13.46
2022-09-11T06:03:56.617Z,13.47
2022-09-11T06:06:25.117Z,13.32
2022-09-11T06:08:53.386Z,13.41
2022-09-11T06:11:21.593Z,13.44
2022-09-11T06:13:49.151Z,13.98
2022-09-11T06:16:19.534Z,14.41
2022-09-11T06:18:49.164Z,14.60
2022-09-11T06:21:21.354Z,15.19
2022-09-11T06:23:54.927Z,15.96
2022-09-11T06:26:25.021Z,15.95
2022-09-11T06:28:52.879Z,15.49
2022-09-11T06:31:21.406Z,15.22
2022-09-11T06:33:49.206Z,15.07
2022-09-11T06:36:18.133Z,15.21
2022-09-11T06:38:46.193Z,15.38
2022-09-11T06:41:15.773Z,15.42
2022-09-11T06:43:44.101Z,15.60
2022-09-11T06:46:16.008Z,15.66
2022-09-11T06:48:43.224Z,15.78
2022-09-11T06:51:11.419Z,15.99
2022-09-11T06:53:38.984Z,16.64
2022-09-11T06:56:12.217Z,18.00
2022-09-11T06:58:41.031Z,17.83
2022-09-11T07:01:17.449Z,17.96
2022-09-11T07:03:46.833Z,18.96
2022-09-11T07:06:19.051Z,18.46
2022-09-11T07:08:52.204Z,18.62
2022-09-11T07:11:19.687Z,18.23
2022-09-11T07:13:47.502Z,18.14
2022-09-11T07:16:16.464Z,18.21
2022-09-11T07:18:49.181Z,17.83
2022-09-11T07:21:21.496Z,17.83
2022-09-11T07:23:54.053Z,18.42
2022-09-11T07:26:22.266Z,17.84
2022-09-11T07:28:52.714Z,17.57
2022-09-11T07:31:21.282Z,17.37
2022-09-11T07:33:49.031Z,17.71
2022-09-11T07:36:17.244Z,18.01
2022-09-11T07:38:44.690Z,17.21
2022-09-11T07:41:14.162Z,17.18
2022-09-11T07:43:42.016Z,17.69
2022-09-11T07:46:10.077Z,18.08
2022-09-11T07:48:36.572Z,18.06
2022-09-11T07:51:04.412Z,17.82
2022-09-11T07:53:35.190Z,18.35
2022-09-11T07:56:03.699Z,17.75
2022-09-11T07:58:34.139Z,17.47
2022-09-11T08:01:02.510Z,17.73
2022-09-11T08:03:31.069Z,17.77
2022-09-11T08:05:58.544Z,17.84
2022-09-11T08:08:26.122Z,18.36
2022-09-11T08:10:52.641Z,19.78
2022-09-11T08:13:20.156Z,20.72
2022-09-11T08:15:50.904Z,19.01
2022-09-11T08:18:19.495Z,18.96
2022-09-11T08:20:46.017Z,19.76
2022-09-11T08:23:13.120Z,20.29
2022-09-11T08:25:39.659Z,19.97
2022-09-11T08:28:07.768Z,20.53
2022-09-11T08:30:38.190Z,20.65
2022-09-11T08:33:06.145Z,19.81
2022-09-11T08:35:35.490Z,21.22
2022-09-11T08:38:03.185Z,21.43
2022-09-11T08:40:30.627Z,21.31
2022-09-11T08:43:01.926Z,21.80
2022-09-11T08:45:31.542Z,22.26
2022-09-11T08:47:59.167Z,22.63
2022-09-11T08:50:33.774Z,24.11
2022-09-11T08:53:01.211Z,23.29
2022-09-11T08:55:41.246Z,22.69
2022-09-11T08:58:27.225Z,22.57
2022-09-11T09:00:53.750Z,22.04
2022-09-11T09:03:23.921Z,22.08
2022-09-11T09:05:55.469Z,21.37
2022-09-11T09:08:25.261Z,20.96
2022-09-11T09:10:53.173Z,20.97
2022-09-11T09:13:47.494Z,21.47
2022-09-11T09:16:13.927Z,21.58
2022-09-11T09:18:43.977Z,21.43
2022-09-11T09:21:31.312Z,21.78
2022-09-11T09:24:01.158Z,22.01
2022-09-11T09:26:39.953Z,21.64
2022-09-11T09:29:09.723Z,21.55
2022-09-11T09:31:38.989Z,21.95
2022-09-11T09:34:15.470Z,22.04
2022-09-11T09:36:45.440Z,23.02
2022-09-11T09:39:16.398Z,22.52
2022-09-11T09:41:53.840Z,22.20
2022-09-11T09:44:34.731Z,22.30
2022-09-11T09:47:01.281Z,22.07
2022-09-11T09:49:30.399Z,23.01
2022-09-11T09:52:03.511Z,22.74
2022-09-11T09:54:33.978Z,23.18
2022-09-11T09:57:02.510Z,22.43
2022-09-11T09:59:39.761Z,23.29
2022-09-11T10:02:06.419Z,23.13
2022-09-11T10:04:33.098Z,22.28
2022-09-11T10:07:10.611Z,22.86
2022-09-11T10:09:45.419Z,22.94
2022-09-11T10:12:32.191Z,23.92
2022-09-11T10:15:00.145Z,22.89
2022-09-11T10:17:26.535Z,24.40
2022-09-11T10:19:55.158Z,23.95
2022-09-11T10:22:24.582Z,24.25
2022-09-11T10:25:00.525Z,23.58
2022-09-11T10:27:29.023Z,24.36
2022-09-11T10:29:55.708Z,24.61
2022-09-11T10:32:24.603Z,24.74
2022-09-11T10:34:51.569Z,22.72
2022-09-11T10:37:29.854Z,24.06
2022-09-11T10:40:04.399Z,26.20
2022-09-11T10:42:33.346Z,25.84
2022-09-11T10:45:18.688Z,26.71
2022-09-11T10:47:51.168Z,26.69
2022-09-11T10:50:17.691Z,25.49
2022-09-11T10:52:51.608Z,27.84
2022-09-11T10:55:19.683Z,27.57
2022-09-11T10:57:50.312Z,26.47
2022-09-11T11:00:22.768Z,24.45
2022-09-11T11:03:05.160Z,24.68
2022-09-11T11:05:50.328Z,24.27
2022-09-11T11:08:22.975Z,24.26
2022-09-11T11:11:04.775Z,24.58
2022-09-11T11:13:42.500Z,24.80
2022-09-11T11:16:21.218Z,23.86
2022-09-11T11:19:02.354Z,24.11
2022-09-11T11:21:47.743Z,25.36
2022-09-11T11:24:17.980Z,24.44
2022-09-11T11:26:44.398Z,23.07
2022-09-11T11:29:28.457Z,23.87
2022-09-11T11:32:02.586Z,23.38
2022-09-11T11:34:35.176Z,25.52
2022-09-11T11:37:05.806Z,25.99
2022-09-11T11:39:37.012Z,26.77
2022-09-11T11:42:15.857Z,25.60
2022-09-11T11:44:42.698Z,25.20
2022-09-11T11:47:10.886Z,25.89
2022-09-11T11:49:46.874Z,24.83
2022-09-11T11:52:23.064Z,25.83
2022-09-11T11:54:54.338Z,25.45
2022-09-11T11:57:22.472Z,26.30
2022-09-11T11:59:48.865Z,26.18
2022-09-11T12:02:24.795Z,26.01
2022-09-11T12:04:54.050Z,26.28
2022-09-11T12:07:30.111Z,26.47
2022-09-11T12:09:58.723Z,25.78
2022-09-11T12:12:28.015Z,25.26
2022-09-11T12:14:56.308Z,24.23
2022-09-11T12:17:33.299Z,24.19
2022-09-11T12:20:12.019Z,23.88
2022-09-11T12:22:45.797Z,23.77
2022-09-11T12:25:21.452Z,24.33
2022-09-11T12:27:49.093Z,23.65
2022-09-11T12:30:18.616Z,23.87
2022-09-11T12:32:46.134Z,23.40
2022-09-11T12:35:20.054Z,23.09
2022-09-11T12:38:06.787Z,23.04
2022-09-11T12:40:40.102Z,22.86
2022-09-11T12:43:26.295Z,22.62
2022-09-11T12:45:53.025Z,22.73
2022-09-11T12:48:22.187Z,22.56
2022-09-11T12:50:56.252Z,22.33
2022-09-11T12:53:27.858Z,22.12
2022-09-11T12:55:54.260Z,22.15
2022-09-11T12:58:20.706Z,22.35
2022-09-11T13:01:10.356Z,22.72
2022-09-11T13:03:38.702Z,22.84
2022-09-11T13:06:10.165Z,22.51
2022-09-11T13:08:38.841Z,22.87
2022-09-11T13:11:25.568Z,22.68
2022-09-11T13:13:52.230Z,23.21
2022-09-11T13:16:26.463Z,23.01
2022-09-11T13:19:08.258Z,23.30
2022-09-11T13:21:49.378Z,24.02
2022-09-11T13:24:23.869Z,23.24
2022-09-11T13:26:55.212Z,23.89
2022-09-11T13:29:26.565Z,24.25
2022-09-11T13:31:53.852Z,24.29
2022-09-11T13:34:23.383Z,24.51
2022-09-11T13:36:54.605Z,25.12
2022-09-11T13:39:23.717Z,24.22
2022-09-11T13:41:52.981Z,23.76
2022-09-11T13:44:28.449Z,23.42
2022-09-11T13:46:56.197Z,24.01
2022-09-11T13:49:37.099Z,24.71
2022-09-11T13:52:05.724Z,24.32
2022-09-11T13:54:34.659Z,24.17
2022-09-11T13:57:01.496Z,23.55
2022-09-11T13:59:44.551Z,23.55
2022-09-11T14:02:20.304Z,24.09
2022-09-11T14:04:49.511Z,24.60
2022-09-11T14:07:17.602Z,24.95
2022-09-11T14:09:47.777Z,25.69
2022-09-11T14:12:14.600Z,24.78
2022-09-11T14:14:46.943Z,24.44
2022-09-11T14:17:13.999Z,24.35
2022-09-11T14:19:42.617Z,24.30
2022-09-11T14:22:20.295Z,24.75
2022-09-11T14:24:57.382Z,24.74
2022-09-11T14:27:34.381Z,23.75
2022-09-11T14:30:00.870Z,24.12
2022-09-11T14:32:31.989Z,23.47
2022-09-11T14:34:58.695Z,23.33
2022-09-11T14:37:27.012Z,23.18
2022-09-11T14:39:56.705Z,23.49
2022-09-11T14:42:25.546Z,22.87
2022-09-11T14:44:52.038Z,22.67
2022-09-11T14:47:25.741Z,22.95
2022-09-11T14:49:55.945Z,22.79
2022-09-11T14:52:23.942Z,22.70
2022-09-11T14:54:50.358Z,22.55
2022-09-11T14:57:20.865Z,22.28
2022-09-11T14:59:47.654Z,22.65
2022-09-11T15:02:15.730Z,22.76
2022-09-11T15:04:42.270Z,22.94
2022-09-11T15:07:10.282Z,22.73
2022-09-11T15:09:38.175Z,22.79
2022-09-11T15:12:05.113Z,22.69
2022-09-11T15:14:55.147Z,22.86
2022-09-11T15:17:20.183Z,22.75
2022-09-11T15:19:47.729Z,22.49
2022-09-11T15:22:14.260Z,22.68
2022-09-11T15:24:41.609Z,22.99
2022-09-11T15:27:10.249Z,22.26
2022-09-11T15:29:39.414Z,22.19
2022-09-11T15:32:07.455Z,22.68
2022-09-11T15:34:34.466Z,22.27
2022-09-11T15:37:00.930Z,22.19
2022-09-11T15:39:28.058Z,21.93
2022-09-11T15:41:57.467Z,22.10
2022-09-11T15:44:25.445Z,22.54
2022-09-11T15:46:53.106Z,22.17
2022-09-11T15:49:23.453Z,21.69
2022-09-11T15:51:50.651Z,21.60
2022-09-11T15:54:17.558Z,22.12
2022-09-11T15:56:44.716Z,22.25
2022-09-11T15:59:11.893Z,22.14
2022-09-11T16:01:39.359Z,22.36
2022-09-11T16:04:07.182Z,21.49
2022-09-11T16:06:35.829Z,21.76
2022-09-11T16:09:06.258Z,21.88
2022-09-11T16:11:33.097Z,21.47
2022-09-11T16:13:59.878Z,21.40
2022-09-11T16:16:26.958Z,21.73
2022-09-11T16:18:54.007Z,21.17
2022-09-11T16:21:21.157Z,22.31
2022-09-11T16:23:52.724Z,21.70
2022-09-11T16:26:21.339Z,21.51
2022-09-11T16:28:48.242Z,21.62
2022-09-11T16:31:15.314Z,21.52
2022-09-11T16:33:47.887Z,21.35
2022-09-11T16:36:17.390Z,20.66
2022-09-11T16:38:44.449Z,20.69
2022-09-11T16:41:12.410Z,21.00
2022-09-11T16:43:40.196Z,21.00
2022-09-11T16:46:07.159Z,20.74
2022-09-11T16:48:33.667Z,20.81
2022-09-11T16:51:00.721Z,20.52
2022-09-11T16:53:34.294Z,20.42
2022-09-11T16:56:03.514Z,20.56
2022-09-11T16:58:30.007Z,20.67
2022-09-11T17:00:56.577Z,20.29
2022-09-11T17:03:23.011Z,20.21
2022-09-11T17:05:50.686Z,20.01
2022-09-11T17:08:17.774Z,20.00
2022-09-11T17:10:45.249Z,19.78
2022-09-11T17:13:12.463Z,19.66
2022-09-11T17:15:40.373Z,18.96
2022-09-11T17:18:06.862Z,19.26
2022-09-11T17:20:33.518Z,19.05
2022-09-11T17:23:00.122Z,19.03
2022-09-11T17:25:26.753Z,19.04
2022-09-11T17:27:53.167Z,19.17
2022-09-11T17:30:21.322Z,19.10
2022-09-11T17:32:47.827Z,19.12
2022-09-11T17:35:14.478Z,19.01
2022-09-11T17:37:40.971Z,18.97
2022-09-11T17:40:07.893Z,18.98
2022-09-11T17:42:34.398Z,19.02
2022-09-11T17:45:02.331Z,19.08
2022-09-11T17:47:33.098Z,19.05
2022-09-11T17:50:02.537Z,18.91
2022-09-11T17:52:31.274Z,18.99
2022-09-11T17:54:57.717Z,18.80
2022-09-11T17:57:25.504Z,18.64
2022-09-11T17:59:51.994Z,18.81
2022-09-11T18:02:19.656Z,19.03
2022-09-11T18:04:49.277Z,18.83
2022-09-11T18:07:16.004Z,18.83
2022-09-11T18:09:42.518Z,18.76
2022-09-11T18:12:09.955Z,18.64
2022-09-11T18:14:37.390Z,18.56
2022-09-11T18:17:03.868Z,18.52
2022-09-11T18:19:30.298Z,18.41
2022-09-11T18:21:57.006Z,18.27
2022-09-11T18:24:24.055Z,18.29
2022-09-11T18:26:51.613Z,18.18
2022-09-11T18:29:20.090Z,18.02
2022-09-11T18:31:49.874Z,17.89
2022-09-11T18:34:18.386Z,17.94
2022-09-11T18:36:45.195Z,17.81
2022-09-11T18:39:12.982Z,17.99
2022-09-11T18:41:39.592Z,18.09
2022-09-11T18:44:10.889Z,17.97
2022-09-11T18:46:37.531Z,17.83
2022-09-11T18:49:04.486Z,17.89
2022-09-11T18:51:31.157Z,17.85
2022-09-11T18:53:59.510Z,17.78
2022-09-11T18:56:28.417Z,17.86
2022-09-11T18:58:56.084Z,17.98
2022-09-11T19:01:24.144Z,17.88
2022-09-11T19:03:52.330Z,18.00
2022-09-11T19:06:20.283Z,18.03
2022-09-11T19:08:47.538Z,18.03
2022-09-11T19:11:19.208Z,17.98
2022-09-11T19:13:45.960Z,18.09
2022-09-11T19:16:12.952Z,18.14
2022-09-11T19:18:39.545Z,18.07
2022-09-11T19:21:13.475Z,17.92
2022-09-11T19:23:41.139Z,17.88
2022-09-11T19:26:11.047Z,17.88
2022-09-11T19:28:38.282Z,17.61
2022-09-11T19:31:05.477Z,17.72
2022-09-11T19:33:33.038Z,17.69
2022-09-11T19:36:03.521Z,17.73
2022-09-11T19:38:30.481Z,17.48
2022-09-11T19:41:00.298Z,17.52
2022-09-11T19:43:31.159Z,17.32
2022-09-11T19:46:04.479Z,17.27
2022-09-11T19:48:31.551Z,17.28
2022-09-11T19:50:58.135Z,17.47
2022-09-11T19:53:24.596Z,17.08
2022-09-11T19:55:54.519Z,16.84
2022-09-11T19:58:24.052Z,16.89
2022-09-11T20:00:50.936Z,16.91
2022-09-11T20:03:18.407Z,16.93
2022-09-11T20:05:45.659Z,16.91
2022-09-11T20:08:16.423Z,16.76
2022-09-11T20:10:45.392Z,16.72
2022-09-11T20:13:12.195Z,16.82
2022-09-11T20:15:39.077Z,17.01
2022-09-11T20:18:07.409Z,16.78
2022-09-11T20:20:37.364Z,16.63
2022-09-11T20:23:04.523Z,16.76
2022-09-11T20:25:31.349Z,17.16
2022-09-11T20:28:00.961Z,17.19
2022-09-11T20:30:30.057Z,17.05
2022-09-11T20:32:56.559Z,17.05
2022-09-11T20:35:23.190Z,16.98
2022-09-11T20:37:50.728Z,17.38
2022-09-11T20:40:17.244Z,17.13
2022-09-11T20:42:43.765Z,17.07
2022-09-11T20:45:10.278Z,16.83
2022-09-11T20:47:36.745Z,17.42
2022-09-11T20:50:03.508Z,17.62
2022-09-11T20:52:30.967Z,17.85
2022-09-11T20:54:57.706Z,18.37
2022-09-11T20:57:24.135Z,18.01
2022-09-11T20:59:50.610Z,17.98
2022-09-11T21:02:17.611Z,18.06
2022-09-11T21:04:44.214Z,17.95
2022-09-11T21:07:11.154Z,17.95
2022-09-11T21:09:37.950Z,17.91
2022-09-11T21:12:04.492Z,17.79
2022-09-11T21:14:31.012Z,17.72
2022-09-11T21:16:57.452Z,17.84
2022-09-11T21:19:23.983Z,18.22
2022-09-11T21:21:50.600Z,17.58
2022-09-11T21:24:17.012Z,17.31
2022-09-11T21:26:43.597Z,17.14
2022-09-11T21:29:12.453Z,17.15
2022-09-11T21:31:38.970Z,17.12
2022-09-11T21:34:05.506Z,17.07
2022-09-11T21:36:33.421Z,16.80
2022-09-11T21:38:59.909Z,17.23
2022-09-11T21:41:26.317Z,17.31
2022-09-11T21:43:52.725Z,17.27
2022-09-11T21:46:19.259Z,17.68
2022-09-11T21:48:45.697Z,18.22
2022-09-11T21:51:16.437Z,17.67
2022-09-11T21:53:44.703Z,17.58
2022-09-11T21:56:24.784Z,17.71
2022-09-11T21:58:51.795Z,17.63
2022-09-11T22:01:19.947Z,18.76
2022-09-11T22:03:46.601Z,17.69
2022-09-11T22:06:13.611Z,17.24
2022-09-11T22:08:41.167Z,17.04
2022-09-11T22:11:07.634Z,16.73
2022-09-11T22:13:35.447Z,16.76
2022-09-11T22:16:06.117Z,16.89
2022-09-11T22:18:33.666Z,17.33
2022-09-11T22:21:03.054Z,16.82
2022-09-11T22:23:30.192Z,16.65
2022-09-11T22:26:05.431Z,16.63
2022-09-11T22:28:31.919Z,16.41
2022-09-11T22:30:58.440Z,16.28
2022-09-11T22:33:25.332Z,16.57
2022-09-11T22:35:51.819Z,16.27
2022-09-11T22:38:18.491Z,16.54
2022-09-11T22:40:44.970Z,16.49
2022-09-11T22:43:11.487Z,16.14
2022-09-11T22:45:37.968Z,16.08
2022-09-11T22:48:04.842Z,15.99
2022-09-11T22:50:31.269Z,15.98
2022-09-11T22:52:57.699Z,15.98
2022-09-11T22:55:24.143Z,15.88
2022-09-11T22:57:50.803Z,15.79
2022-09-11T23:00:18.941Z,15.64
2022-09-11T23:02:45.578Z,15.58
2022-09-11T23:05:30.714Z,15.57
2022-09-11T23:07:57.161Z,15.76
2022-09-11T23:10:23.731Z,15.96
2022-09-11T23:12:51.514Z,16.06
2022-09-11T23:15:18.061Z,15.48
2022-09-11T23:17:44.806Z,15.20
2022-09-11T23:20:11.624Z,15.00
2022-09-11T23:22:38.310Z,14.98
2022-09-11T23:25:05.435Z,15.00
2022-09-11T23:27:32.852Z,14.83
2022-09-11T23:29:59.331Z,14.62
2022-09-11T23:32:25.799Z,14.51
2022-09-11T23:34:52.239Z,14.59
2022-09-11T23:37:18.654Z,14.72
2022-09-11T23:39:45.520Z,15.47
2022-09-11T23:42:12.003Z,15.00
2022-09-11T23:44:38.498Z,14.85
2022-09-11T23:47:04.991Z,14.96
2022-09-11T23:49:36.023Z,14.85
2022-09-11T23:52:03.243Z,14.87
2022-09-11T23:54:29.666Z,14.59
2022-09-11T23:56:56.295Z,14.44
2022-09-11T23:59:22.739Z,14.55
